Time;durP1;ratioP1;P1;durP2;ratioP2;P2;SDS_P1;SDS_P2;PMS_P1;PMS_P2;Temp;Humidity;BMP_temperature;BMP_pressure;BME280_temperature;BME280_humidity;BME280_pressure;Samples;Min_cycle;Max_cycle;Signal;HPM_P1;HPM_P2
2022/06/22 00:02:21;;;;;;;11.27;4.18;;;;;;;23.95;48.64;98675.03;4944374;28;20033;-94
2022/06/22 00:04:51;;;;;;;11.48;3.50;;;;;;;23.94;49.32;98682.47;4944107;28;20034;-94
2022/06/22 00:07:22;;;;;;;9.82;3.72;;;;;;;24.05;48.61;98703.78;4944735;28;20076;-94
2022/06/22 00:09:52;;;;;;;6.93;3.40;;;;;;;23.78;49.25;98670.88;4976241;28;20030;-94
2022/06/22 00:12:26;;;;;;;5.25;3.25;;;;;;;23.95;49.28;98697.81;4944791;28;20097;-94
2022/06/22 00:14:53;;;;;;;12.40;3.85;;;;;;;23.77;49.36;98681.09;4946215;28;20101;-94
2022/06/22 00:17:37;;;;;;;6.80;3.67;;;;;;;23.72;49.52;98694.31;4945219;28;20539;-94
2022/06/22 00:20:10;;;;;;;7.72;3.53;;;;;;;23.78;49.38;98692.88;4945581;28;20113;-95
2022/06/22 00:22:54;;;;;;;11.65;3.67;;;;;;;23.61;50.08;98677.69;4945068;28;20030;-94
2022/06/22 00:25:41;;;;;;;6.82;3.67;;;;;;;23.74;49.54;98698.31;4946113;28;20030;-94
2022/06/22 00:28:29;;;;;;;8.38;3.88;;;;;;;23.68;49.86;98708.03;4962996;28;20076;-94
2022/06/22 00:31:16;;;;;;;12.82;3.55;;;;;;;23.55;49.68;98693.75;4960947;28;20412;-95
2022/06/22 00:34:03;;;;;;;6.45;3.45;;;;;;;23.77;48.88;98710.53;4946858;28;20030;-94
2022/06/22 00:36:34;;;;;;;9.35;3.28;;;;;;;23.70;49.81;98719.47;4976731;28;20034;-95
2022/06/22 00:39:22;;;;;;;8.38;3.50;;;;;;;23.66;49.82;98718.63;4945353;28;20037;-93
2022/06/22 00:41:59;;;;;;;10.32;3.67;;;;;;;23.66;49.54;98717.81;4978748;28;20523;-93
2022/06/22 00:44:27;;;;;;;10.05;3.50;;;;;;;23.54;48.97;98697.63;4979718;28;20034;-94
2022/06/22 00:47:07;;;;;;;8.40;3.35;;;;;;;23.59;49.47;98707.50;4948117;28;20044;-95
2022/06/22 00:49:33;;;;;;;5.78;3.63;;;;;;;23.38;49.61;98708.00;4949578;28;20121;-94
2022/06/22 00:52:00;;;;;;;8.15;3.45;;;;;;;23.40;49.84;98708.44;4963168;28;20120;-94
2022/06/22 00:54:27;;;;;;;7.00;3.60;;;;;;;23.40;50.13;98714.72;4947246;28;20046;-95
2022/06/22 00:57:11;;;;;;;19.20;3.92;;;;;;;23.34;49.75;98718.16;4947685;28;20030;-93
2022/06/22 00:59:40;;;;;;;9.32;3.70;;;;;;;23.38;49.29;98717.03;4947189;28;20568;-94
2022/06/22 01:02:24;;;;;;;12.18;3.60;;;;;;;23.45;50.29;98724.63;4947476;28;20030;-95
2022/06/22 01:05:10;;;;;;;7.60;3.17;;;;;;;23.37;48.94;98714.69;4979079;28;20030;-94
2022/06/22 01:08:01;;;;;;;9.70;3.40;;;;;;;23.54;48.27;98719.63;4949334;28;20576;-94
2022/06/22 01:10:40;;;;;;;9.20;3.35;;;;;;;23.49;48.56;98708.16;4979013;28;20057;-93
2022/06/22 01:13:13;;;;;;;6.70;3.08;;;;;;;23.39;47.63;98696.66;4962977;28;20022;-94
2022/06/22 01:15:49;;;;;;;7.22;3.25;;;;;;;23.42;47.66;98722.59;4964106;28;20034;-95
2022/06/22 01:18:26;;;;;;;7.22;3.15;;;;;;;23.27;48.24;98702.38;4946892;28;20022;-94
2022/06/22 01:20:56;;;;;;;12.02;3.50;;;;;;;23.39;47.63;98721.38;4980028;28;20022;-94
2022/06/22 01:23:49;;;;;;;6.05;3.30;;;;;;;23.37;46.96;98711.94;4978776;28;20149;-95
2022/06/22 01:27:09;;;;;;;10.35;3.53;;;;;;;23.48;47.37;98728.56;4979079;28;20041;-94
2022/06/22 01:29:35;;;;;;;11.27;3.85;;;;;;;23.38;46.81;98710.75;4978893;28;20037;-94
2022/06/22 01:32:28;;;;;;;8.13;3.50;;;;;;;23.40;46.66;98711.97;4946893;28;20058;-94
2022/06/22 01:34:55;;;;;;;7.35;3.75;;;;;;;23.36;47.17;98707.59;4959592;28;20038;-94
2022/06/22 01:37:23;;;;;;;10.95;3.90;;;;;;;23.20;47.93;98711.28;4946759;28;20492;-95
2022/06/22 01:39:48;;;;;;;7.18;3.78;;;;;;;23.26;47.46;98710.97;4947037;28;20034;-94
2022/06/22 01:42:31;;;;;;;9.65;4.22;;;;;;;23.17;47.87;98716.72;4946438;28;20507;-94
2022/06/22 01:44:58;;;;;;;10.27;3.60;;;;;;;23.20;47.09;98733.28;4948586;28;20026;-93
2022/06/22 01:47:26;;;;;;;8.30;3.75;;;;;;;23.28;47.25;98727.88;4962444;28;20038;-94
2022/06/22 01:50:29;;;;;;;8.15;3.65;;;;;;;23.12;47.79;98731.56;4978417;28;20057;-93
2022/06/22 01:53:09;;;;;;;10.00;4.00;;;;;;;23.04;47.59;98710.66;4948481;28;20030;-93
2022/06/22 01:55:54;;;;;;;8.87;3.80;;;;;;;23.11;47.65;98724.47;4947796;28;20504;-94
2022/06/22 01:58:20;;;;;;;7.85;3.67;;;;;;;23.07;48.24;98722.84;4963340;28;20485;-94
2022/06/22 02:00:51;;;;;;;7.28;3.50;;;;;;;22.87;47.53;98709.19;4979347;28;20037;-94
2022/06/22 02:03:37;;;;;;;8.10;3.35;;;;;;;22.90;47.99;98704.91;4947360;28;20026;-93
2022/06/22 02:08:59;;;;;;;11.10;3.47;;;;;;;22.88;47.95;98704.47;4969288;28;20123;-93
2022/06/22 02:11:26;;;;;;;7.38;3.30;;;;;;;22.79;48.01;98707.47;4946510;28;20030;-94
2022/06/22 02:14:02;;;;;;;9.82;3.53;;;;;;;22.67;48.70;98726.84;4946326;28;20130;-93
2022/06/22 02:17:03;;;;;;;5.28;3.45;;;;;;;22.76;48.07;98716.41;4947958;28;20069;-94
2022/06/22 02:19:29;;;;;;;9.70;3.83;;;;;;;22.59;48.91;98701.22;4882915;29;20033;-95
2022/06/22 02:21:57;;;;;;;7.85;3.50;;;;;;;22.59;48.74;98715.75;4931136;28;20046;-94
2022/06/22 02:24:26;;;;;;;7.50;3.17;;;;;;;22.52;48.32;98720.31;4946936;28;20034;-94
2022/06/22 02:26:54;;;;;;;9.57;3.97;;;;;;;22.58;48.75;98711.44;4978408;28;20030;-95
2022/06/22 02:29:21;;;;;;;13.02;3.80;;;;;;;22.53;49.02;98716.41;4961582;28;20030;-95
2022/06/22 02:31:47;;;;;;;7.47;3.88;;;;;;;22.64;48.99;98733.06;4945428;28;20130;-94
2022/06/22 02:34:13;;;;;;;11.82;3.67;;;;;;;22.63;49.06;98720.50;4945647;28;20026;-94
2022/06/22 02:36:40;;;;;;;11.98;4.10;;;;;;;22.57;48.67;98715.31;4946234;28;20026;-95
2022/06/22 02:39:06;;;;;;;12.63;3.67;;;;;;;22.54;49.65;98727.03;4945732;28;20093;-93
2022/06/22 02:44:40;;;;;;;12.00;3.30;;;;;;;22.64;48.20;98739.38;4967060;28;20089;-94
2022/06/22 02:47:31;;;;;;;9.90;3.15;;;;;;;22.66;48.53;98747.22;4951406;28;20038;-94
2022/06/22 02:50:06;;;;;;;5.90;2.73;;;;;;;22.80;47.99;98761.19;4947456;28;20053;-94
2022/06/22 02:52:37;;;;;;;7.10;3.30;;;;;;;22.78;48.04;98753.31;4977559;28;20272;-94
2022/06/22 02:55:03;;;;;;;9.85;3.28;;;;;;;22.85;47.94;98766.41;4946132;28;20061;-93
2022/06/22 02:57:28;;;;;;;7.88;3.30;;;;;;;23.05;47.65;98780.09;4946033;28;20146;-94
2022/06/22 02:59:54;;;;;;;9.05;3.10;;;;;;;23.00;47.44;98759.97;4977909;28;20049;-94
2022/06/22 03:02:21;;;;;;;8.23;3.15;;;;;;;22.98;47.07;98756.03;4945831;28;20022;-94
2022/06/22 03:04:47;;;;;;;9.05;3.42;;;;;;;22.95;48.08;98743.00;4945224;28;20037;-95
2022/06/22 03:07:13;;;;;;;6.22;2.90;;;;;;;22.97;48.08;98738.75;4945475;28;20026;-96
2022/06/22 03:09:41;;;;;;;13.15;4.10;;;;;;;23.15;46.90;98757.50;4945464;28;20030;-95
2022/06/22 03:12:07;;;;;;;10.02;3.28;;;;;;;23.30;46.76;98769.50;4945909;28;20468;-94
2022/06/22 03:14:37;;;;;;;10.90;3.20;;;;;;;23.40;46.58;98775.16;4946784;28;20056;-94
2022/06/22 03:17:10;;;;;;;5.82;3.03;;;;;;;23.34;46.34;98751.13;4946105;28;20034;-94
2022/06/22 03:19:48;;;;;;;9.90;3.03;;;;;;;23.55;46.04;98772.63;4946404;28;20037;-94
2022/06/22 03:22:20;;;;;;;7.03;2.97;;;;;;;23.49;46.27;98760.38;4946302;28;20073;-95
2022/06/22 03:24:51;;;;;;;11.38;3.65;;;;;;;23.49;46.08;98744.69;4946559;28;20477;-93
2022/06/22 03:27:24;;;;;;;9.02;3.20;;;;;;;23.49;46.62;98747.44;4963023;28;20566;-92
2022/06/22 03:29:55;;;;;;;8.95;3.50;;;;;;;23.47;46.35;98744.28;4979654;28;20029;-92
2022/06/22 03:32:25;;;;;;;7.77;3.00;;;;;;;23.72;46.61;98774.03;4964545;28;20377;-92
2022/06/22 03:34:57;;;;;;;7.97;2.97;;;;;;;23.50;46.87;98749.00;4979835;28;20503;-92
2022/06/22 03:37:26;;;;;;;7.70;3.33;;;;;;;23.64;46.62;98751.19;4966460;28;20025;-93
2022/06/22 03:39:55;;;;;;;7.60;3.25;;;;;;;23.50;47.47;98731.75;4980336;28;20044;-90
2022/06/22 03:42:31;;;;;;;14.48;3.17;;;;;;;23.72;46.74;98749.31;4965170;28;20030;-93
2022/06/22 03:45:13;;;;;;;11.43;3.17;;;;;;;23.65;46.20;98729.97;4964838;28;20133;-94
2022/06/22 03:48:00;;;;;;;9.38;2.70;;;;;;;23.85;46.48;98761.72;4966838;28;20033;-92
2022/06/22 03:50:54;;;;;;;13.23;4.25;;;;;;;23.72;47.43;98760.31;5016361;28;20064;-95
2022/06/22 03:53:38;;;;;;;11.20;3.58;;;;;;;23.88;47.60;98774.69;4985730;28;20112;-95
2022/06/22 03:56:07;;;;;;;9.60;3.90;;;;;;;23.78;46.26;98745.91;4999904;28;20053;-95
2022/06/22 03:58:32;;;;;;;9.43;4.05;;;;;;;23.76;46.80;98740.00;4964753;28;20065;-95
2022/06/22 04:00:58;;;;;;;13.80;3.15;;;;;;;23.95;46.24;98749.28;4964454;28;20516;-94
2022/06/22 04:03:24;;;;;;;10.98;3.10;;;;;;;23.75;46.81;98718.34;4963755;28;20056;-95
2022/06/22 04:05:52;;;;;;;15.38;4.00;;;;;;;23.74;48.08;98730.47;4963445;28;20033;-95
2022/06/22 04:08:32;;;;;;;7.63;3.40;;;;;;;23.84;47.27;98743.59;4964926;28;20062;-95
2022/06/22 04:11:12;;;;;;;7.32;3.38;;;;;;;23.85;47.17;98756.22;4964535;28;20028;-93
2022/06/22 04:13:47;;;;;;;11.07;4.28;;;;;;;23.80;48.26;98742.75;5013193;28;20080;-94
2022/06/22 04:16:36;;;;;;;9.50;3.00;;;;;;;23.88;47.19;98746.41;4966350;28;20480;-94
2022/06/22 04:19:04;;;;;;;8.45;3.70;;;;;;;24.04;46.84;98759.97;4969483;28;20026;-95
2022/06/22 04:21:36;;;;;;;7.50;3.20;;;;;;;23.91;46.99;98748.44;4969653;28;20426;-95
2022/06/22 04:24:11;;;;;;;8.52;3.95;;;;;;;23.90;47.40;98741.34;4984736;28;20463;-95
2022/06/22 04:27:18;;;;;;;13.85;4.75;;;;;;;24.02;47.92;98765.84;4969115;28;20041;-88
2022/06/22 04:29:52;;;;;;;16.33;5.10;;;;;;;23.95;47.90;98774.81;4983213;28;20030;-95
2022/06/22 04:32:23;;;;;;;13.20;3.75;;;;;;;23.98;47.07;98759.50;4985414;28;20022;-95
2022/06/22 04:34:58;;;;;;;10.20;3.95;;;;;;;23.89;47.87;98743.28;4968513;28;20037;-95
2022/06/22 04:37:37;;;;;;;10.38;3.35;;;;;;;23.92;48.18;98767.28;4969230;28;20029;-95
2022/06/22 04:40:22;;;;;;;10.00;3.60;;;;;;;23.90;49.48;98742.13;4985181;28;20103;-92
2022/06/22 04:42:50;;;;;;;13.20;3.40;;;;;;;23.94;47.01;98759.44;4984090;28;20029;-92
2022/06/22 04:45:27;;;;;;;7.25;3.40;;;;;;;23.95;47.25;98765.78;4967050;28;20022;-91
2022/06/22 04:48:16;;;;;;;17.48;3.85;;;;;;;23.96;47.76;98764.59;4999596;28;20068;-92
2022/06/22 04:50:48;;;;;;;6.72;3.35;;;;;;;23.83;47.59;98755.78;4990591;28;20416;-91
2022/06/22 04:53:20;;;;;;;5.57;3.10;;;;;;;24.01;47.07;98772.53;4960541;28;20102;-92
2022/06/22 04:55:46;;;;;;;7.80;3.38;;;;;;;23.90;47.87;98746.84;4927642;29;20050;-94
2022/06/22 04:58:45;;;;;;;9.18;3.60;;;;;;;23.76;47.92;98741.91;4927472;29;20027;-93
2022/06/22 05:01:25;;;;;;;10.07;3.20;;;;;;;23.80;47.70;98760.06;4937994;29;20035;-93
2022/06/22 05:03:53;;;;;;;6.55;3.42;;;;;;;23.87;47.55;98758.59;4927901;29;20059;-94
2022/06/22 05:06:22;;;;;;;11.27;3.80;;;;;;;23.88;48.74;98774.69;4926823;29;20027;-94
2022/06/22 05:09:29;;;;;;;10.95;3.47;;;;;;;23.85;47.97;98758.97;4926693;29;20023;-94
2022/06/22 05:11:55;;;;;;;6.70;3.25;;;;;;;23.80;48.31;98762.81;4931745;29;20031;-95
2022/06/22 05:14:27;;;;;;;11.77;3.90;;;;;;;23.79;49.40;98765.94;4926219;29;20062;-93
2022/06/22 05:17:05;;;;;;;15.63;11.15;;;;;;;23.87;49.26;98764.09;4928258;29;20046;-91
2022/06/22 05:19:49;;;;;;;7.32;3.55;;;;;;;23.89;49.17;98792.00;4936707;28;20022;-94
2022/06/22 05:22:15;;;;;;;6.70;3.90;;;;;;;23.93;49.84;98779.88;4952224;28;20130;-94
2022/06/22 05:24:47;;;;;;;9.00;3.45;;;;;;;24.13;48.49;98794.28;4954928;28;20493;-93
2022/06/22 05:27:15;;;;;;;;;;;;;;;24.05;48.68;98809.13;4946116;28;20050;-94
2022/06/22 05:29:53;;;;;;;9.20;3.63;;;;;;;23.92;48.32;98772.00;4958984;29;20341;-95
2022/06/22 05:32:40;;;;;;;9.43;3.60;;;;;;;23.88;48.33;98771.94;4951356;28;20023;-95
2022/06/22 05:35:08;;;;;;;7.28;3.28;;;;;;;23.89;48.40;98767.25;4927711;29;20023;-93
2022/06/22 05:37:40;;;;;;;9.52;4.10;;;;;;;23.94;48.86;98780.66;4929309;29;20510;-95
2022/06/22 05:40:10;;;;;;;11.43;3.92;;;;;;;24.02;47.83;98779.59;4943983;29;20442;-95
2022/06/22 05:42:38;;;;;;;9.52;3.90;;;;;;;23.94;47.34;98781.44;4943606;29;20037;-93
2022/06/22 05:45:11;;;;;;;6.68;3.67;;;;;;;24.08;48.07;98788.31;4942010;29;20043;-93
2022/06/22 05:47:36;;;;;;;8.70;3.70;;;;;;;24.14;46.35;98782.13;4926919;29;20122;-94
2022/06/22 05:50:36;;;;;;;12.43;3.80;;;;;;;24.31;45.77;98808.25;4929767;29;20038;-96
2022/06/22 05:53:35;;;;;;;;;;;;;;;;;;;;;
2022/06/22 05:56:09;;;;;;;9.07;5.50;;;;;;;24.29;44.91;98818.06;5054483;23;20492;-93
2022/06/22 05:58:37;;;;;;;8.55;4.32;;;;;;;24.43;44.74;98826.50;4975690;28;20521;-91
2022/06/22 06:01:05;;;;;;;25.30;22.25;;;;;;;24.37;43.01;98817.75;4957765;28;20027;-94
2022/06/22 06:03:43;;;;;;;8.00;3.20;;;;;;;24.35;43.50;98798.09;4942105;28;20035;-94
2022/06/22 06:06:26;;;;;;;10.32;3.63;;;;;;;24.34;43.12;98781.94;4929245;29;20038;-95
2022/06/22 06:09:04;;;;;;;5.60;2.70;;;;;;;24.46;42.11;98789.94;4942992;29;20035;-96
2022/06/22 06:11:41;;;;;;;7.53;3.33;;;;;;;24.55;42.14;98797.94;4945163;28;20117;-92
2022/06/22 06:14:39;;;;;;;7.60;3.05;;;;;;;24.54;42.53;98796.38;4946332;28;20430;-91
2022/06/22 06:17:12;;;;;;;8.63;3.03;;;;;;;24.49;42.28;98797.50;4960356;28;20111;-91
2022/06/22 06:19:40;;;;;;;9.25;3.47;;;;;;;24.57;41.99;98806.59;4961391;28;20042;-91
2022/06/22 06:23:15;;;;;;;;;;;;;;;;;;;;;
2022/06/22 06:33:01;;;;;;;;;;;;;;;24.53;43.10;98795.56;4922745;29;20047;-93
2022/06/22 06:49:40;;;;;;;8.77;3.25;;;;;;;24.97;41.13;98797.59;4825693;29;20037;-92
2022/06/22 06:52:13;;;;;;;5.70;2.72;;;;;;;24.86;37.39;98758.16;4788245;30;20121;-92
2022/06/22 06:58:54;;;;;;;8.68;2.70;;;;;;;25.26;36.02;98786.06;4790556;30;20091;-94
2022/06/22 07:01:24;;;;;;;7.05;2.40;;;;;;;25.16;36.80;98766.28;4721819;30;20151;-93
2022/06/22 07:03:59;;;;;;;7.03;3.70;;;;;;;25.37;36.68;98779.44;4773579;30;20039;-94
2022/06/22 07:06:28;;;;;;;6.18;4.05;;;;;;;25.37;33.07;98771.19;4800679;29;20042;-92
2022/06/22 07:09:20;;;;;;;12.57;6.15;;;;;;;25.40;33.59;98747.56;4832995;29;20052;-93
2022/06/22 07:11:51;;;;;;;8.48;2.17;;;;;;;25.62;33.42;98776.06;4909155;28;20087;-95
2022/06/22 07:14:38;;;;;;;17.60;11.60;;;;;;;25.71;35.08;98770.22;4942118;28;20031;-94
2022/06/22 07:17:14;;;;;;;17.30;7.72;;;;;;;25.78;32.95;98768.28;4956348;28;20031;-94
2022/06/22 07:20:10;;;;;;;6.20;2.28;;;;;;;25.76;30.62;98756.84;4967543;28;20027;-93
2022/06/22 07:22:49;;;;;;;10.00;5.57;;;;;;;25.91;30.50;98777.06;4980435;28;20027;-93
2022/06/22 07:25:31;;;;;;;54.35;37.20;;;;;;;25.78;30.52;98764.75;4962247;28;20035;-93
2022/06/22 07:28:26;;;;;;;3.95;2.30;;;;;;;26.08;30.47;98785.81;4962743;28;20026;-95
2022/06/22 07:30:57;;;;;;;3.55;2.42;;;;;;;25.93;30.68;98760.91;4971335;28;20041;-95
2022/06/22 07:33:34;;;;;;;8.38;1.95;;;;;;;26.14;31.26;98800.81;4960012;28;20023;-93
2022/06/22 07:36:26;;;;;;;6.40;1.88;;;;;;;26.27;30.02;98801.25;4968172;28;20094;-96
2022/06/22 07:39:50;;;;;;;9.32;2.33;;;;;;;26.07;30.45;98774.00;4966054;28;20482;-95
2022/06/22 07:42:44;;;;;;;7.63;2.65;;;;;;;26.24;30.65;98788.25;4950425;28;20034;-95
2022/06/22 07:45:24;;;;;;;8.77;2.20;;;;;;;26.16;31.05;98773.63;4952445;28;20046;-94
2022/06/22 07:48:04;;;;;;;13.07;4.18;;;;;;;26.23;31.27;98789.41;4938742;28;20027;-94
2022/06/22 07:50:43;;;;;;;7.05;2.30;;;;;;;26.27;31.16;98781.94;4968227;28;20064;-95
2022/06/22 07:53:22;;;;;;;9.15;2.33;;;;;;;26.35;31.40;98797.34;4964820;28;20035;-92
2022/06/22 07:56:09;;;;;;;12.05;3.00;;;;;;;26.44;33.11;98788.72;4940518;28;20116;-90
2022/06/22 07:58:52;;;;;;;4.05;2.35;;;;;;;26.51;32.57;98789.53;4942417;28;20400;-93
2022/06/22 08:01:25;;;;;;;4.40;2.45;;;;;;;26.50;32.58;98776.91;4941723;28;20034;-93
2022/06/22 08:04:05;;;;;;;7.15;2.92;;;;;;;26.57;32.73;98789.97;4927346;28;20034;-93
2022/06/22 08:07:05;;;;;;;3.60;2.33;;;;;;;26.37;31.99;98779.22;4939213;29;20047;-96
2022/06/22 08:10:18;;;;;;;3.72;2.78;;;;;;;26.60;32.70;98783.66;4921872;29;20043;-95
2022/06/22 08:12:55;;;;;;;8.80;2.50;;;;;;;26.59;32.82;98796.69;4919005;29;20040;-94
2022/06/22 08:15:21;;;;;;;4.38;2.20;;;;;;;26.49;32.94;98771.78;4936237;29;20102;-95
2022/06/22 08:17:54;;;;;;;7.60;2.47;;;;;;;26.62;32.27;98781.28;4905025;29;20090;-92
2022/06/22 08:20:24;;;;;;;7.38;2.60;;;;;;;26.62;33.22;98775.78;4905551;29;20039;-95
2022/06/22 08:22:53;;;;;;;8.57;2.92;;;;;;;26.65;34.19;98775.00;4907362;29;20119;-94
2022/06/22 08:25:19;;;;;;;6.55;2.40;;;;;;;26.76;32.16;98775.03;4923277;29;20055;-92
2022/06/22 08:28:00;;;;;;;6.25;2.17;;;;;;;26.81;31.51;98767.16;4905141;29;20390;-95
2022/06/22 08:30:29;;;;;;;3.70;2.40;;;;;;;26.84;32.24;98768.31;4942032;29;20046;-94
2022/06/22 08:33:05;;;;;;;8.38;2.42;;;;;;;26.95;31.25;98771.88;4940540;29;20031;-94
2022/06/22 08:35:37;;;;;;;5.88;2.17;;;;;;;27.02;31.36;98790.47;4939298;29;20190;-94
2022/06/22 08:38:21;;;;;;;;;;;;;;;26.96;31.53;98780.97;4939548;29;20118;-93
2022/06/22 08:40:54;;;;;;;3.67;2.10;;;;;;;27.01;31.22;98775.81;4938862;29;19935;-93
2022/06/22 08:43:28;;;;;;;7.93;2.20;;;;;;;27.13;31.33;98776.63;4954136;29;20055;-93
2022/06/22 08:46:22;;;;;;;3.13;2.00;;;;;;;27.01;30.69;98742.66;4925575;29;20046;-96
2022/06/22 08:49:06;;;;;;;10.25;2.13;;;;;;;27.30;31.52;98770.34;4941006;29;20122;-96
2022/06/22 08:51:58;;;;;;;5.82;2.10;;;;;;;27.41;31.89;98773.91;4941759;29;20036;-95
2022/06/22 08:55:19;;;;;;;5.93;2.50;;;;;;;27.38;30.61;98768.38;4942538;29;20031;-94
2022/06/22 08:58:04;;;;;;;5.47;2.28;;;;;;;27.34;30.08;98734.41;4882195;29;20044;-95
2022/06/22 09:00:39;;;;;;;6.60;2.65;;;;;;;27.47;30.44;98757.66;4894092;29;20134;-94
2022/06/22 09:03:32;;;;;;;8.90;2.45;;;;;;;27.55;30.50;98745.41;4938483;29;20067;-94
2022/06/22 09:06:04;;;;;;;8.15;2.28;;;;;;;27.71;30.43;98741.44;4940292;29;20036;-95
2022/06/22 09:09:04;;;;;;;7.72;2.20;;;;;;;27.84;30.38;98748.09;4941989;29;20028;-93
2022/06/22 09:11:55;;;;;;;8.80;3.53;;;;;;;27.76;29.57;98713.34;4927260;29;20027;-94
2022/06/22 09:14:34;;;;;;;7.87;2.87;;;;;;;27.80;29.68;98714.91;4934353;29;20036;-94
2022/06/22 09:17:19;;;;;;;6.43;2.00;;;;;;;27.84;30.02;98703.84;4947902;29;20035;-94
2022/06/22 09:20:09;;;;;;;7.55;2.22;;;;;;;28.05;29.78;98730.66;4926585;29;20489;-94
2022/06/22 09:22:53;;;;;;;5.03;1.92;;;;;;;28.07;29.43;98721.97;4957179;29;20046;-95
2022/06/22 09:25:56;;;;;;;11.77;2.40;;;;;;;28.18;28.97;98725.44;4958703;29;20041;-92
2022/06/22 09:28:36;;;;;;;6.30;2.30;;;;;;;28.05;27.13;98714.06;4957430;29;20485;-95
2022/06/22 09:31:18;;;;;;;5.00;1.42;;;;;;;28.33;23.96;98729.75;4929311;29;20027;-94
2022/06/22 09:34:06;;;;;;;6.00;1.60;;;;;;;28.32;22.79;98732.91;4942009;29;20027;-93
2022/06/22 09:36:56;;;;;;;6.20;1.80;;;;;;;28.48;23.50;98732.44;4942369;29;20035;-95
2022/06/22 09:39:49;;;;;;;5.60;1.27;;;;;;;28.58;22.01;98729.63;4965854;29;20059;-94
2022/06/22 09:42:47;;;;;;;13.13;1.90;;;;;;;28.87;21.85;98734.97;4966610;29;20023;-95
2022/06/22 09:45:50;;;;;;;7.07;1.70;;;;;;;28.97;21.79;98734.09;4946840;29;20115;-95
2022/06/22 09:48:22;;;;;;;9.32;1.42;;;;;;;29.08;21.16;98749.84;4959118;29;20023;-93
2022/06/22 09:51:17;;;;;;;6.90;1.35;;;;;;;29.09;21.47;98756.94;4952610;29;20139;-91
2022/06/22 09:53:58;;;;;;;5.50;2.00;;;;;;;29.13;21.71;98750.19;4954904;29;20511;-94
2022/06/22 09:56:59;;;;;;;;;;;;;;;;;;;;;
2022/06/22 09:59:37;;;;;;;6.75;1.63;;;;;;;29.41;21.98;98751.16;4976034;28;20045;-94
2022/06/22 10:02:12;;;;;;;5.82;1.55;;;;;;;29.43;22.27;98751.53;4971353;28;20515;-94
2022/06/22 10:18:15;;;;;;;5.20;1.70;;;;;;;29.86;21.35;98751.09;4959487;29;20034;-95
2022/06/22 10:20:57;;;;;;;9.73;1.75;;;;;;;29.89;22.67;98757.81;4959649;29;20074;-96
2022/06/22 10:23:32;;;;;;;3.47;1.98;;;;;;;29.97;22.63;98760.09;4975498;28;20055;-96
2022/06/22 10:26:01;;;;;;;9.93;1.92;;;;;;;29.97;22.62;98737.88;4965589;29;20038;-96
2022/06/22 10:28:51;;;;;;;8.48;1.80;;;;;;;30.11;21.85;98748.03;4960298;29;20055;-96
2022/06/22 10:31:20;;;;;;;4.05;1.65;;;;;;;30.20;22.59;98756.63;4961316;28;20015;-96
2022/06/22 10:34:28;;;;;;;5.90;1.75;;;;;;;29.94;21.56;98727.59;4978758;28;20023;-96
2022/06/22 10:37:17;;;;;;;8.85;1.70;;;;;;;29.71;22.27;98741.38;4942847;29;20023;-94
2022/06/22 10:40:11;;;;;;;5.63;1.63;;;;;;;29.82;22.46;98761.44;4981835;28;20031;-96
2022/06/22 10:46:37;;;;;;;6.45;1.90;;;;;;;29.97;22.95;98748.22;4990370;28;20043;-96
2022/06/22 10:49:47;;;;;;;10.38;2.08;;;;;;;30.02;23.24;98731.84;4970344;28;20050;-96
2022/06/22 10:53:22;;;;;;;;;;;;;;;;;;;;;
2022/06/22 10:55:58;;;;;;;9.07;2.20;;;;;;;30.10;22.63;98776.22;4981515;28;20038;-96
2022/06/22 10:59:10;;;;;;;9.25;3.60;;;;;;;29.92;22.41;98779.19;4982094;28;20058;-94
2022/06/22 11:02:25;;;;;;;;;;;;;;;;;;;;;
2022/06/22 11:05:32;;;;;;;5.15;1.20;;;;;;;29.50;22.07;98770.88;4996143;28;20046;-96
2022/06/22 11:08:32;;;;;;;12.10;1.50;;;;;;;29.44;22.18;98785.59;4976849;28;20023;-96
2022/06/22 11:14:43;;;;;;;7.57;1.33;;;;;;;29.30;22.80;98786.50;4980424;28;20102;-94
2022/06/22 11:17:27;;;;;;;3.78;1.63;;;;;;;29.14;23.34;98795.38;4985288;28;20034;-96
2022/06/22 11:20:54;;;;;;;4.88;1.38;;;;;;;28.76;23.27;98757.22;4991156;28;20122;-96
2022/06/22 11:31:27;;;;;;;7.50;1.23;;;;;;;29.54;22.26;98773.63;4981506;28;20037;-96
2022/06/22 11:34:30;;;;;;;4.78;1.48;;;;;;;29.66;21.53;98786.19;4944726;28;20050;-91
2022/06/22 11:37:15;;;;;;;;;;;;;;;;;;;;;
2022/06/22 11:39:50;;;;;;;4.90;1.67;;;;;;;29.59;21.48;98770.38;4976161;28;20026;-94
2022/06/22 11:45:59;;;;;;;9.90;1.23;;;;;;;29.87;21.39;98779.66;4962187;28;20041;-92
2022/06/22 11:49:10;;;;;;;;;;;;;;;;;;;;;
2022/06/22 11:52:01;;;;;;;5.33;1.30;;;;;;;29.46;21.55;98741.59;4975399;28;20031;-93
2022/06/22 11:54:36;;;;;;;8.15;1.25;;;;;;;29.50;20.65;98767.31;4965462;28;20027;-96
2022/06/22 11:57:55;;;;;;;13.73;1.30;;;;;;;29.24;20.90;98761.22;4974668;28;20046;-94
2022/06/22 12:00:44;;;;;;;6.55;1.30;;;;;;;29.24;21.52;98769.53;4953005;28;20373;-94
2022/06/22 12:03:57;;;;;;;;;;;;;;;;;;;;;
2022/06/22 12:07:14;;;;;;;8.30;1.20;;;;;;;28.85;20.62;98747.66;4976596;28;20038;-94
2022/06/22 12:10:16;;;;;;;5.50;1.10;;;;;;;28.95;20.80;98761.41;4951887;28;20094;-94
2022/06/22 12:13:06;;;;;;;6.25;1.40;;;;;;;28.89;21.03;98746.44;4959941;28;20028;-93
2022/06/22 12:15:37;;;;;;;4.78;1.15;;;;;;;28.92;21.59;98742.81;4977792;28;20031;-96
2022/06/22 12:18:44;;;;;;;6.03;1.30;;;;;;;28.92;21.29;98758.66;4978218;28;20521;-94
2022/06/22 12:21:31;;;;;;;11.43;1.40;;;;;;;28.93;21.50;98755.50;4975727;28;20018;-93
2022/06/22 12:24:14;;;;;;;7.57;1.25;;;;;;;29.02;21.43;98758.59;4977537;28;20035;-92
2022/06/22 12:27:20;;;;;;;;;;;;;;;;;;;;;
2022/06/22 12:29:51;;;;;;;5.80;1.40;;;;;;;28.72;22.00;98739.00;4974571;28;20037;-92
2022/06/22 12:32:34;;;;;;;5.90;1.50;;;;;;;28.72;22.53;98744.56;4957750;28;20092;-91
2022/06/22 12:35:31;;;;;;;4.57;1.58;;;;;;;28.92;22.98;98739.28;4923656;29;20341;-93
2022/06/22 12:38:15;;;;;;;9.52;1.90;;;;;;;28.84;23.00;98732.22;4941948;29;20482;-93
2022/06/22 12:41:15;;;;;;;5.93;1.60;;;;;;;28.81;23.17;98739.34;4939665;28;20042;-94
2022/06/22 12:43:59;;;;;;;9.18;2.40;;;;;;;28.97;23.63;98755.44;4946971;28;20030;-93
2022/06/22 12:46:33;;;;;;;6.22;1.70;;;;;;;29.11;22.55;98740.72;4972740;28;20035;-90
2022/06/22 12:49:36;;;;;;;4.43;1.75;;;;;;;29.17;22.74;98730.78;4956866;28;20031;-94
2022/06/22 12:52:07;;;;;;;9.13;2.00;;;;;;;29.17;23.58;98728.78;4957550;28;20137;-91
2022/06/22 12:54:40;;;;;;;;;;;;;;;29.48;23.92;98773.28;4958198;28;20031;-91
2022/06/22 12:57:12;;;;;;;6.75;1.98;;;;;;;29.29;23.72;98743.34;4974635;28;19977;-90
2022/06/22 12:59:49;;;;;;;5.03;2.03;;;;;;;29.47;23.21;98726.50;4928317;29;20534;-92
2022/06/22 13:02:27;;;;;;;5.55;1.83;;;;;;;29.53;22.69;98739.53;4959321;29;20074;-92
2022/06/22 13:05:00;;;;;;;9.88;2.20;;;;;;;29.58;23.40;98738.31;4926945;29;20046;-91
2022/06/22 13:07:36;;;;;;;;;;;;;;;;;;;;;
2022/06/22 13:10:02;;;;;;;5.20;2.03;;;;;;;29.90;22.72;98740.72;4959730;28;20027;-92
2022/06/22 13:12:36;;;;;;;7.10;1.85;;;;;;;30.19;22.89;98763.38;4952619;29;20122;-92
2022/06/22 13:15:08;;;;;;;8.63;2.00;;;;;;;30.26;22.99;98747.81;4958034;29;20038;-93
2022/06/22 13:18:33;;;;;;;4.88;2.03;;;;;;;30.25;22.39;98730.38;4927103;29;20043;-92
2022/06/22 13:21:31;;;;;;;5.28;2.05;;;;;;;30.32;22.95;98751.75;4899712;29;20069;-94
2022/06/22 13:24:19;;;;;;;8.27;2.08;;;;;;;30.50;22.87;98757.84;4899421;29;20554;-90
2022/06/22 13:27:33;;;;;;;;;;;;;;;;;;;;;
2022/06/22 13:30:11;;;;;;;8.73;1.92;;;;;;;30.95;22.47;98746.47;4977223;28;20023;-91
2022/06/22 13:33:00;;;;;;;7.45;2.25;;;;;;;31.17;22.16;98737.78;4958638;28;20037;-93
2022/06/22 13:39:16;;;;;;;7.80;2.25;;;;;;;31.55;22.10;98727.19;4985721;28;20124;-95
2022/06/22 13:42:21;;;;;;;7.20;2.40;;;;;;;31.83;21.71;98747.31;4970928;28;20030;-96
2022/06/22 13:45:03;;;;;;;9.45;3.40;;;;;;;32.04;21.68;98723.84;4981237;28;20058;-95
2022/06/22 13:48:01;;;;;;;8.05;2.55;;;;;;;32.28;21.17;98729.34;4964017;28;20030;-96
2022/06/22 13:53:41;;;;;;;10.73;2.70;;;;;;;32.73;20.89;98737.88;4980250;28;20034;-94
2022/06/22 13:56:43;;;;;;;8.48;2.40;;;;;;;32.86;20.28;98696.16;4984357;28;20037;-94
2022/06/22 13:59:40;;;;;;;;;;;;;;;;;;;;;
2022/06/22 14:02:49;;;;;;;10.23;1.98;;;;;;;33.31;19.12;98717.75;4938715;28;20094;-96
2022/06/22 14:05:44;;;;;;;7.28;2.10;;;;;;;33.70;18.27;98729.09;4981360;28;20153;-93
2022/06/22 14:08:53;;;;;;;;;;;;;;;;;;;;;